Česky Dansk Deutsch English Español Suomi Français Magyar Italiano Nederlands norsk Polski Português svenska Türkçe

 

Het Weer

Chapelco (Argentinië)

15:38, 1 augustus 2016 (GMT)

NWNNE
WE
SWSSE
Home            
Chapelco Bariloche Aerodrome Valdivia Temuco El Bolson Aerodrome Puerto Montt Neuquen Aerodrome Esquel Aerodrome Chillan Concepcion Paso De Indios San Antonio Oeste Aerodrome Malargue Aerodrome Curico Puerto Madryn, CHT Trelew Aerodrome Rio Colorado Coyhaique Balmaceda San Rafael Aerodrome Viedma Aerodrome Comodoro Rivadavia Aerodrome Santa Rosa Aerodrome

Om een weerknop op uw website of weblog te plaatsen, copieer onderstaande code en plak die in uw pagina. In het eerste vakje staat HTML-code, in het tweede vakje UBB-code.


Add to Google

Details

Visibility:Greater than 10000 m, 10 km, 32800 ft, 6.2 miles
Clouds:Aufgelockert bewölkt at 300 ft, 91 m
Temperature:2°C, 36°F
Dew-point:2°C, 36°F
Atmospheric pressure:1024 hPa, 768.1 mmHg, 30.24 inHg, 1.011 atm
Relative humidity:100.0 %
METAR:SAZY 011538Z 00000KT 9999 SCT003 02/02 Q1024

Snelkoppelingen

Actuele weersinformatie van de hele wereld. Voeg locaties toe met het plus (+) symbool. Deze snelkoppelingen kunnen worden toegevoegd aan Google.

Lid van de Technetium groep

website free tracking
StatCounter NetStat W3C Validator

21-08-2018 08:19:41
astro.technetium.be money.technetium.be phote.technetium.be tafeltennistafel.technetium.be www.ligfiets.net